Time;durP1;ratioP1;P1;durP2;ratioP2;P2;SDS_P1;SDS_P2;PMS_P1;PMS_P2;Temp;Humidity;BMP_temperature;BMP_pressure;BME280_temperature;BME280_humidity;BME280_pressure;Samples;Min_cycle;Max_cycle;Signal;HPM_P1;HPM_P2
2023/01/22 04:03:08;;;;;;;;;;;0.00;99.90;;;;;;4934792;29;19934;-74
2023/01/22 04:05:38;;;;;;;;;;;0.00;99.90;;;;;;4935777;29;19927;-73
2023/01/22 04:08:05;;;;;;;;;;;0.00;99.90;;;;;;4942271;29;19934;-72
2023/01/22 04:10:33;;;;;;;;;;;0.00;99.90;;;;;;4943432;29;20029;-72
2023/01/22 04:13:02;;;;;;;;;;;0.00;99.90;;;;;;4916085;29;19926;-72
2023/01/22 04:15:29;;;;;;;;;;;0.00;99.90;;;;;;4924926;29;20396;-74
2023/01/22 04:17:57;;;;;;;;;;;0.00;99.90;;;;;;4919619;29;19933;-74
2023/01/22 04:20:45;;;;;;;;;;;0.00;99.90;;;;;;4922920;29;19933;-72
2023/01/22 04:23:20;;;;;;;;;;;0.00;99.90;;;;;;4915835;29;19934;-73
2023/01/22 04:25:48;;;;;;;;;;;0.00;99.90;;;;;;4922487;29;20116;-72
2023/01/22 04:28:16;;;;;;;;;;;0.00;99.90;;;;;;4920028;29;19934;-71
2023/01/22 04:30:45;;;;;;;;;;;0.00;99.90;;;;;;4921687;29;20402;-73
2023/01/22 04:33:44;;;;;;;;;;;0.00;99.90;;;;;;4911433;29;20338;-74
2023/01/22 04:36:28;;;;;;;;;;;0.00;99.90;;;;;;4917857;29;19933;-72
2023/01/22 04:38:55;;;;;;;;;;;0.00;99.90;;;;;;4926364;29;19927;-72
2023/01/22 04:41:22;;;;;;;;;;;-0.10;99.90;;;;;;4925562;29;19937;-72
2023/01/22 04:43:49;;;;;;;;;;;0.00;99.90;;;;;;4921059;29;19927;-73
2023/01/22 04:46:16;;;;;;;;;;;0.00;99.90;;;;;;4923368;29;20030;-72
2023/01/22 04:48:44;;;;;;;;;;;0.00;99.90;;;;;;4923544;29;19927;-74
2023/01/22 04:51:12;;;;;;;;;;;0.00;99.90;;;;;;4926447;29;20325;-72
2023/01/22 04:53:41;;;;;;;;;;;0.00;99.90;;;;;;4920978;29;19927;-75
2023/01/22 04:56:08;;;;;;;;;;;0.00;99.90;;;;;;4924557;29;19940;-72
2023/01/22 04:58:35;;;;;;;;;;;0.00;99.90;;;;;;4922027;29;19927;-72
2023/01/22 05:01:02;;;;;;;;;;;0.00;99.90;;;;;;4926348;29;19935;-74
2023/01/22 05:03:29;;;;;;;;;;;0.00;99.90;;;;;;4925257;29;19934;-73
2023/01/22 05:05:56;;;;;;;;;;;0.00;99.90;;;;;;4928518;29;20397;-72
2023/01/22 05:08:23;;;;;;;;;;;0.00;99.90;;;;;;4926967;29;20030;-72
2023/01/22 05:10:52;;;;;;;;;;;0.00;99.90;;;;;;4923154;29;19926;-71
2023/01/22 05:13:25;;;;;;;;;;;0.00;99.90;;;;;;4923159;29;19926;-72
2023/01/22 05:15:52;;;;;;;;;;;0.00;99.90;;;;;;4921826;29;19977;-74
2023/01/22 05:18:19;;;;;;;;;;;0.00;99.90;;;;;;4926756;29;19935;-73
2023/01/22 05:20:49;;;;;;;;;;;0.00;99.90;;;;;;4923275;29;20017;-73
2023/01/22 05:23:17;;;;;;;;;;;0.00;99.90;;;;;;4922609;29;20008;-71
2023/01/22 05:25:47;;;;;;;;;;;0.00;99.90;;;;;;4923527;29;19930;-72
2023/01/22 05:28:15;;;;;;;;;;;0.00;99.90;;;;;;4925297;29;19930;-72
2023/01/22 05:31:09;;;;;;;;;;;0.00;99.90;;;;;;4903160;29;20033;-73
2023/01/22 05:33:56;;;;;;;;;;;0.00;99.90;;;;;;4934047;29;19926;-71
2023/01/22 05:36:23;;;;;;;;;;;0.00;99.90;;;;;;4924523;29;19931;-73
2023/01/22 05:38:52;;;;;;;;;;;0.00;99.90;;;;;;4919636;29;19938;-72
2023/01/22 05:41:22;;;;;;;;;;;0.00;99.90;;;;;;4929095;29;19927;-73
2023/01/22 05:43:52;;;;;;;;;;;0.00;99.90;;;;;;4928259;29;19926;-73
2023/01/22 05:46:23;;;;;;;;;;;0.00;99.90;;;;;;4925855;29;20415;-72
2023/01/22 05:49:10;;;;;;;;;;;0.00;99.90;;;;;;4940886;29;20358;-72
2023/01/22 05:51:37;;;;;;;;;;;0.00;99.90;;;;;;4926736;29;19926;-72
2023/01/22 05:54:04;;;;;;;;;;;0.00;99.90;;;;;;4928556;29;20381;-72
2023/01/22 05:56:35;;;;;;;;;;;0.00;99.90;;;;;;4928263;29;19927;-75
2023/01/22 05:59:03;;;;;;;;;;;0.00;99.90;;;;;;4924735;29;20001;-72
2023/01/22 06:01:30;;;;;;;;;;;0.00;99.90;;;;;;4924806;29;19931;-72
2023/01/22 06:03:58;;;;;;;;;;;0.00;99.90;;;;;;4914138;29;19966;-73
2023/01/22 06:06:26;;;;;;;;;;;0.00;99.90;;;;;;4921781;29;20301;-71
2023/01/22 06:08:54;;;;;;;;;;;0.00;99.90;;;;;;4917273;29;19938;-72
2023/01/22 06:11:23;;;;;;;;;;;0.00;99.90;;;;;;4913242;29;19931;-71
2023/01/22 06:13:50;;;;;;;;;;;0.00;99.90;;;;;;4921230;29;19931;-72
2023/01/22 06:16:20;;;;;;;;;;;-0.10;99.90;;;;;;4915336;29;20037;-71
2023/01/22 06:19:02;;;;;;;;;;;-0.10;99.90;;;;;;4919942;29;20399;-72
2023/01/22 06:21:35;;;;;;;;;;;0.00;99.90;;;;;;4916089;29;20122;-71
2023/01/22 06:24:02;;;;;;;;;;;0.00;99.90;;;;;;4922324;29;19931;-72
2023/01/22 06:26:30;;;;;;;;;;;0.00;99.90;;;;;;4917986;29;19927;-71
2023/01/22 06:28:59;;;;;;;;;;;-0.10;99.90;;;;;;4915494;29;19931;-70
2023/01/22 06:31:27;;;;;;;;;;;-0.10;99.90;;;;;;4919890;29;20028;-70
2023/01/22 06:33:55;;;;;;;;;;;-0.10;99.90;;;;;;4918079;29;19946;-72
2023/01/22 06:36:21;;;;;;;;;;;-0.10;99.90;;;;;;4917477;29;19927;-71
2023/01/22 06:38:49;;;;;;;;;;;-0.10;99.90;;;;;;4920049;29;20409;-72
2023/01/22 06:41:20;;;;;;;;;;;-0.10;99.90;;;;;;4920459;29;19927;-71
2023/01/22 06:43:54;;;;;;;;;;;-0.10;99.90;;;;;;4919626;29;20305;-72
2023/01/22 06:46:21;;;;;;;;;;;-0.10;99.90;;;;;;4924353;29;19932;-72
2023/01/22 06:49:01;;;;;;;;;;;-0.10;99.90;;;;;;4927359;29;19926;-72
2023/01/22 06:51:29;;;;;;;;;;;-0.10;99.90;;;;;;4924369;29;19927;-71
2023/01/22 06:53:56;;;;;;;;;;;-0.10;99.90;;;;;;4914766;29;20315;-72
2023/01/22 06:56:23;;;;;;;;;;;0.00;99.90;;;;;;4919201;29;19958;-72
2023/01/22 06:58:50;;;;;;;;;;;-0.10;99.90;;;;;;4920052;29;19926;-70
2023/01/22 07:01:17;;;;;;;;;;;-0.10;99.90;;;;;;4917084;29;19978;-71
2023/01/22 07:03:44;;;;;;;;;;;0.00;99.90;;;;;;4916361;29;19938;-72
2023/01/22 07:06:13;;;;;;;;;;;-0.10;99.90;;;;;;4909188;29;19927;-71
2023/01/22 07:08:41;;;;;;;;;;;0.00;99.90;;;;;;4913145;29;19927;-72
2023/01/22 07:11:07;;;;;;;;;;;0.00;99.90;;;;;;4909480;29;20018;-72
2023/01/22 07:13:34;;;;;;;;;;;0.00;99.90;;;;;;4914154;29;19937;-69
2023/01/22 07:16:01;;;;;;;;;;;0.00;99.90;;;;;;4911954;29;19926;-70
2023/01/22 07:18:28;;;;;;;;;;;0.00;99.90;;;;;;4927726;29;19926;-73
2023/01/22 07:20:55;;;;;;;;;;;0.00;99.90;;;;;;4916120;29;19938;-73
2023/01/22 07:23:23;;;;;;;;;;;0.00;99.90;;;;;;4914740;29;19927;-78
2023/01/22 07:25:50;;;;;;;;;;;0.00;99.90;;;;;;4911044;29;19931;-73
2023/01/22 07:28:17;;;;;;;;;;;0.00;99.90;;;;;;4914068;29;19934;-71
2023/01/22 07:30:45;;;;;;;;;;;0.00;99.90;;;;;;4923273;29;19927;-73
2023/01/22 07:33:12;;;;;;;;;;;0.00;99.90;;;;;;4917465;29;19933;-72
2023/01/22 07:35:39;;;;;;;;;;;0.00;99.90;;;;;;4920240;29;20450;-66
2023/01/22 07:38:06;;;;;;;;;;;0.00;99.90;;;;;;4913908;29;19942;-72
2023/01/22 07:40:34;;;;;;;;;;;0.00;99.90;;;;;;4921178;29;19927;-74
2023/01/22 07:43:04;;;;;;;;;;;0.00;99.90;;;;;;4917543;29;20310;-73
2023/01/22 07:45:33;;;;;;;;;;;0.10;99.90;;;;;;4915042;29;19926;-72
2023/01/22 07:48:00;;;;;;;;;;;0.10;99.90;;;;;;4927962;29;20381;-72
2023/01/22 07:50:27;;;;;;;;;;;0.10;99.90;;;;;;4917191;29;19973;-72
2023/01/22 07:52:54;;;;;;;;;;;0.10;99.90;;;;;;4915276;29;19962;-72
2023/01/22 07:55:21;;;;;;;;;;;0.10;99.90;;;;;;4911661;29;20017;-72
2023/01/22 07:57:56;;;;;;;;;;;0.20;99.90;;;;;;4918705;29;19939;-73
2023/01/22 08:00:23;;;;;;;;;;;0.20;99.90;;;;;;4914401;29;19935;-73
2023/01/22 08:02:50;;;;;;;;;;;0.20;99.90;;;;;;4913808;29;19928;-72
2023/01/22 08:05:17;;;;;;;;;;;0.20;99.90;;;;;;4916389;29;19927;-73
2023/01/22 08:07:44;;;;;;;;;;;0.20;99.90;;;;;;4916677;29;19927;-71
2023/01/22 08:10:10;;;;;;;;;;;0.30;99.90;;;;;;4919957;29;19927;-72
2023/01/22 08:12:40;;;;;;;;;;;0.30;99.90;;;;;;4913016;29;19927;-72
2023/01/22 08:15:08;;;;;;;;;;;0.30;99.90;;;;;;4920341;29;19927;-72
2023/01/22 08:17:35;;;;;;;;;;;0.30;99.90;;;;;;4920673;29;19931;-74
2023/01/22 08:20:02;;;;;;;;;;;0.30;99.90;;;;;;4920029;29;19927;-74
2023/01/22 08:22:29;;;;;;;;;;;0.30;99.90;;;;;;4914651;29;19934;-73
2023/01/22 08:24:55;;;;;;;;;;;0.30;99.90;;;;;;4917542;29;19927;-73
2023/01/22 08:27:22;;;;;;;;;;;0.30;99.90;;;;;;4920363;29;19934;-72
2023/01/22 08:29:49;;;;;;;;;;;0.30;99.90;;;;;;4919974;29;19930;-72
2023/01/22 08:32:18;;;;;;;;;;;0.30;99.90;;;;;;4920148;29;20021;-74
2023/01/22 08:34:45;;;;;;;;;;;0.30;99.90;;;;;;4919296;29;19935;-73
2023/01/22 08:37:11;;;;;;;;;;;0.40;99.90;;;;;;4918265;29;20307;-71
2023/01/22 08:39:38;;;;;;;;;;;0.40;99.90;;;;;;4920114;29;19930;-72
2023/01/22 08:42:05;;;;;;;;;;;0.40;99.90;;;;;;4920520;29;19933;-72
2023/01/22 08:44:32;;;;;;;;;;;0.40;99.90;;;;;;4920153;29;19927;-72
2023/01/22 08:46:58;;;;;;;;;;;0.50;99.90;;;;;;4921492;29;20390;-71
2023/01/22 08:49:29;;;;;;;;;;;0.60;99.90;;;;;;4919548;29;19943;-72
2023/01/22 08:51:56;;;;;;;;;;;0.50;99.90;;;;;;4929598;29;19973;-71
2023/01/22 08:54:23;;;;;;;;;;;0.50;99.90;;;;;;4929057;29;19934;-71
2023/01/22 08:56:50;;;;;;;;;;;0.50;99.90;;;;;;4930509;29;19933;-74
2023/01/22 08:59:16;;;;;;;;;;;0.50;99.90;;;;;;4926993;29;19926;-73
2023/01/22 09:01:43;;;;;;;;;;;0.50;99.90;;;;;;4927133;29;19931;-75
2023/01/22 09:04:10;;;;;;;;;;;0.50;99.90;;;;;;4928178;29;20061;-74
2023/01/22 09:06:39;;;;;;;;;;;0.50;99.90;;;;;;4927629;29;20434;-72
2023/01/22 09:09:06;;;;;;;;;;;0.50;99.90;;;;;;4924661;29;19926;-74
2023/01/22 09:11:33;;;;;;;;;;;0.50;99.90;;;;;;4920211;29;19949;-74
2023/01/22 09:13:59;;;;;;;;;;;0.50;99.90;;;;;;4926660;29;19926;-73
2023/01/22 09:16:27;;;;;;;;;;;0.50;99.90;;;;;;4930502;29;19931;-73
2023/01/22 09:18:54;;;;;;;;;;;0.50;99.90;;;;;;4927882;29;19933;-73
2023/01/22 09:21:21;;;;;;;;;;;0.50;99.90;;;;;;4924395;29;19927;-73
2023/01/22 09:23:49;;;;;;;;;;;0.50;99.90;;;;;;4926429;29;19937;-74
2023/01/22 09:26:15;;;;;;;;;;;0.50;99.90;;;;;;4927739;29;19926;-73
2023/01/22 09:28:42;;;;;;;;;;;0.60;99.90;;;;;;4921237;29;19978;-72
2023/01/22 09:31:11;;;;;;;;;;;0.60;99.90;;;;;;4942367;29;20011;-76
2023/01/22 09:33:38;;;;;;;;;;;0.60;99.90;;;;;;4923737;29;19931;-73
2023/01/22 09:36:09;;;;;;;;;;;0.60;99.90;;;;;;4927643;29;19980;-74
2023/01/22 09:38:37;;;;;;;;;;;0.70;99.90;;;;;;4926896;29;19927;-74
2023/01/22 09:41:10;;;;;;;;;;;0.70;99.90;;;;;;4929932;29;20453;-74
2023/01/22 09:43:41;;;;;;;;;;;0.70;99.90;;;;;;4925732;29;20365;-73
2023/01/22 09:46:12;;;;;;;;;;;0.80;99.90;;;;;;4924353;29;19927;-73
2023/01/22 09:48:40;;;;;;;;;;;0.80;99.90;;;;;;4927927;29;19950;-74
2023/01/22 09:51:10;;;;;;;;;;;0.70;99.90;;;;;;4925865;29;19927;-74
2023/01/22 09:53:37;;;;;;;;;;;0.80;99.90;;;;;;4923252;29;19927;-73
2023/01/22 09:56:05;;;;;;;;;;;0.80;99.90;;;;;;4926244;29;19930;-73
2023/01/22 09:58:34;;;;;;;;;;;0.80;99.90;;;;;;4928912;29;19927;-73
2023/01/22 10:01:03;;;;;;;;;;;0.80;99.90;;;;;;4923987;29;19930;-73
2023/01/22 10:03:32;;;;;;;;;;;0.90;99.90;;;;;;4945176;29;19931;-72
2023/01/22 10:06:00;;;;;;;;;;;1.00;99.90;;;;;;4923537;29;20370;-73
2023/01/22 10:08:31;;;;;;;;;;;1.00;99.90;;;;;;4920044;29;19927;-72
2023/01/22 10:10:59;;;;;;;;;;;1.00;99.90;;;;;;4926187;29;19930;-74
2023/01/22 10:13:28;;;;;;;;;;;1.00;99.90;;;;;;4929316;29;19926;-73
2023/01/22 10:15:56;;;;;;;;;;;1.10;99.90;;;;;;4924323;29;19934;-72
2023/01/22 10:18:33;;;;;;;;;;;1.20;99.90;;;;;;4921056;29;19934;-72
2023/01/22 10:21:01;;;;;;;;;;;1.20;99.90;;;;;;4940852;29;19937;-74
2023/01/22 10:23:28;;;;;;;;;;;1.30;99.90;;;;;;4927086;29;19993;-74
2023/01/22 10:25:57;;;;;;;;;;;1.30;99.90;;;;;;4927893;29;19926;-73
2023/01/22 10:28:26;;;;;;;;;;;1.40;99.90;;;;;;4924862;29;20393;-74
2023/01/22 10:30:57;;;;;;;;;;;1.50;99.90;;;;;;4926201;29;19926;-72
2023/01/22 10:33:26;;;;;;;;;;;1.60;99.90;;;;;;4922085;29;19927;-73
2023/01/22 10:35:55;;;;;;;;;;;1.70;99.90;;;;;;4939347;29;19962;-74
2023/01/22 10:38:22;;;;;;;;;;;1.70;99.90;;;;;;4913038;29;19962;-73
2023/01/22 10:40:53;;;;;;;;;;;1.70;99.90;;;;;;4913567;29;19930;-75
2023/01/22 10:43:19;;;;;;;;;;;1.70;99.90;;;;;;4916341;29;19941;-76
2023/01/22 10:45:54;;;;;;;;;;;1.80;99.90;;;;;;4914377;29;19934;-75
2023/01/22 10:48:21;;;;;;;;;;;1.90;99.90;;;;;;4919850;29;20386;-76
2023/01/22 10:50:59;;;;;;;;;;;2.00;99.90;;;;;;4925730;29;19954;-75
2023/01/22 10:53:29;;;;;;;;;;;2.10;99.90;;;;;;4921025;29;19927;-71
2023/01/22 10:55:57;;;;;;;;;;;2.00;99.90;;;;;;4921919;29;19940;-72
2023/01/22 10:58:25;;;;;;;;;;;1.90;99.90;;;;;;4914789;29;20417;-73
2023/01/22 11:00:57;;;;;;;;;;;1.80;99.90;;;;;;4931824;29;19927;-74
2023/01/22 11:03:28;;;;;;;;;;;1.70;99.90;;;;;;4925512;29;19931;-74
2023/01/22 11:05:57;;;;;;;;;;;1.70;99.90;;;;;;4924177;29;20362;-73
2023/01/22 11:08:29;;;;;;;;;;;1.70;99.90;;;;;;4925784;29;19961;-74
2023/01/22 11:10:58;;;;;;;;;;;1.60;99.90;;;;;;4915324;29;20307;-71
2023/01/22 11:13:27;;;;;;;;;;;1.70;99.90;;;;;;4920504;29;19931;-74
2023/01/22 11:15:56;;;;;;;;;;;1.70;99.90;;;;;;4925562;29;19981;-72
2023/01/22 11:18:28;;;;;;;;;;;1.60;99.90;;;;;;4919104;29;19927;-73
2023/01/22 11:20:56;;;;;;;;;;;1.50;99.90;;;;;;4910617;29;19930;-74
2023/01/22 11:23:27;;;;;;;;;;;1.50;99.90;;;;;;4923926;29;19927;-73
2023/01/22 11:26:01;;;;;;;;;;;1.50;99.90;;;;;;4924855;29;19927;-73
2023/01/22 11:28:32;;;;;;;;;;;1.50;99.90;;;;;;4925390;29;19933;-72
2023/01/22 11:31:03;;;;;;;;;;;1.40;99.90;;;;;;4926462;29;19930;-73
2023/01/22 11:33:44;;;;;;;;;;;1.50;99.90;;;;;;4927397;29;19977;-73
2023/01/22 11:36:17;;;;;;;;;;;1.40;99.90;;;;;;4923781;29;19930;-73
2023/01/22 11:38:47;;;;;;;;;;;1.40;99.90;;;;;;4923170;29;19942;-73
2023/01/22 11:41:26;;;;;;;;;;;1.50;99.90;;;;;;4918797;29;19930;-72
2023/01/22 11:43:57;;;;;;;;;;;1.70;99.90;;;;;;4937690;29;19926;-72
2023/01/22 11:46:29;;;;;;;;;;;1.80;99.90;;;;;;4933737;29;19931;-75
2023/01/22 11:49:06;;;;;;;;;;;1.90;99.90;;;;;;4928378;29;19931;-74
2023/01/22 11:51:34;;;;;;;;;;;1.90;99.90;;;;;;4917138;29;19934;-71
2023/01/22 11:54:10;;;;;;;;;;;1.90;99.90;;;;;;4935023;29;19949;-74
2023/01/22 11:56:46;;;;;;;;;;;2.00;99.90;;;;;;4941227;29;19926;-72
2023/01/22 11:59:19;;;;;;;;;;;2.00;99.90;;;;;;4922473;29;19927;-72
2023/01/22 12:01:54;;;;;;;;;;;2.10;99.90;;;;;;4942596;29;19930;-73
2023/01/22 12:04:34;;;;;;;;;;;2.20;99.90;;;;;;4917276;29;20441;-74
2023/01/22 12:07:21;;;;;;;;;;;2.30;99.90;;;;;;4923647;29;20378;-72
2023/01/22 12:09:51;;;;;;;;;;;2.30;99.90;;;;;;4923566;29;19927;-73
2023/01/22 12:12:24;;;;;;;;;;;2.30;99.90;;;;;;4923260;29;19926;-73
2023/01/22 12:14:56;;;;;;;;;;;2.20;99.90;;;;;;4925957;29;19931;-71
2023/01/22 12:17:30;;;;;;;;;;;2.10;99.90;;;;;;4911047;29;20354;-73
2023/01/22 12:20:19;;;;;;;;;;;2.10;99.90;;;;;;4919935;29;19931;-74
2023/01/22 12:22:48;;;;;;;;;;;2.00;99.90;;;;;;4912862;29;19931;-74
2023/01/22 12:25:18;;;;;;;;;;;1.90;99.90;;;;;;4930787;29;19941;-72
2023/01/22 12:27:49;;;;;;;;;;;1.80;99.90;;;;;;4929501;29;19930;-73
2023/01/22 12:30:19;;;;;;;;;;;1.80;99.90;;;;;;4927382;29;19933;-72
2023/01/22 12:32:58;;;;;;;;;;;1.80;99.90;;;;;;4927841;29;19982;-72
2023/01/22 12:35:26;;;;;;;;;;;1.70;99.90;;;;;;4919236;29;19942;-72
2023/01/22 12:37:57;;;;;;;;;;;1.60;99.90;;;;;;4927297;29;19933;-72
2023/01/22 12:40:30;;;;;;;;;;;1.50;99.90;;;;;;4923475;29;19926;-71
2023/01/22 12:43:01;;;;;;;;;;;1.50;99.90;;;;;;4921123;29;19934;-72
2023/01/22 12:45:35;;;;;;;;;;;1.50;99.90;;;;;;4932556;29;19933;-73
2023/01/22 12:48:05;;;;;;;;;;;1.50;99.90;;;;;;4932015;29;19926;-72
2023/01/22 12:50:32;;;;;;;;;;;1.50;99.90;;;;;;4942641;29;20398;-72
2023/01/22 12:52:59;;;;;;;;;;;1.60;99.90;;;;;;4926065;29;19935;-71
2023/01/22 12:55:29;;;;;;;;;;;1.60;99.90;;;;;;4930949;29;19930;-72
2023/01/22 12:57:56;;;;;;;;;;;1.50;99.90;;;;;;4928696;29;19927;-73
2023/01/22 13:00:29;;;;;;;;;;;1.50;99.90;;;;;;4930813;29;20518;-72
2023/01/22 13:02:56;;;;;;;;;;;1.60;99.90;;;;;;4932564;29;19926;-72
2023/01/22 13:05:36;;;;;;;;;;;1.60;99.90;;;;;;4930831;29;19927;-73
2023/01/22 13:08:04;;;;;;;;;;;1.70;99.90;;;;;;4926439;29;20014;-72
2023/01/22 13:10:32;;;;;;;;;;;1.70;99.90;;;;;;4930354;29;19930;-75
2023/01/22 13:13:01;;;;;;;;;;;1.60;99.90;;;;;;4926170;29;19927;-68
2023/01/22 13:15:31;;;;;;;;;;;1.70;99.90;;;;;;4931060;29;19934;-67
2023/01/22 13:18:00;;;;;;;;;;;1.60;99.90;;;;;;4927527;29;19926;-67
2023/01/22 13:20:27;;;;;;;;;;;1.70;99.90;;;;;;4930447;29;19933;-71
2023/01/22 13:22:56;;;;;;;;;;;1.70;99.90;;;;;;4929326;29;19931;-71
2023/01/22 13:25:25;;;;;;;;;;;1.60;99.90;;;;;;4927916;29;19962;-73
2023/01/22 13:27:51;;;;;;;;;;;1.60;99.90;;;;;;4919943;29;19953;-71
2023/01/22 13:30:21;;;;;;;;;;;1.50;99.90;;;;;;4911981;29;19927;-70
2023/01/22 13:32:49;;;;;;;;;;;1.50;99.90;;;;;;4982345;23;19941;-66
2023/01/22 13:35:16;;;;;;;;;;;1.40;99.90;;;;;;4979390;28;20388;-67
2023/01/22 13:37:44;;;;;;;;;;;1.40;99.90;;;;;;4980836;28;20020;-66
2023/01/22 13:40:13;;;;;;;;;;;1.40;99.90;;;;;;4969107;28;20345;-66
2023/01/22 13:42:41;;;;;;;;;;;1.40;99.90;;;;;;4967182;28;19927;-64
2023/01/22 13:45:14;;;;;;;;;;;1.40;99.90;;;;;;4964332;28;19929;-66
2023/01/22 13:47:41;;;;;;;;;;;1.40;99.90;;;;;;4958812;28;19931;-66
2023/01/22 13:50:18;;;;;;;;;;;1.40;99.90;;;;;;4962469;28;19930;-65
2023/01/22 13:52:45;;;;;;;;;;;1.40;99.90;;;;;;4952080;28;19956;-65
2023/01/22 13:55:15;;;;;;;;;;;1.30;99.90;;;;;;4954601;28;19933;-64
2023/01/22 13:57:44;;;;;;;;;;;1.40;99.90;;;;;;4949098;28;19938;-65
2023/01/22 14:00:21;;;;;;;;;;;1.40;99.90;;;;;;4955163;28;19981;-66
2023/01/22 14:02:48;;;;;;;;;;;1.30;99.90;;;;;;4950899;28;20469;-65
2023/01/22 14:05:20;;;;;;;;;;;1.40;99.90;;;;;;4954833;28;19934;-66
2023/01/22 14:07:47;;;;;;;;;;;1.30;99.90;;;;;;4959873;28;19927;-68
2023/01/22 14:10:14;;;;;;;;;;;1.40;99.90;;;;;;4974009;28;19931;-68
2023/01/22 14:12:41;;;;;;;;;;;1.30;99.90;;;;;;4959722;28;19990;-65
2023/01/22 14:15:15;;;;;;;;;;;1.30;99.90;;;;;;4958017;28;19927;-69
2023/01/22 14:17:42;;;;;;;;;;;1.30;99.90;;;;;;4949988;28;19935;-67
2023/01/22 14:20:09;;;;;;;;;;;1.30;99.90;;;;;;4954720;28;19931;-68
2023/01/22 14:22:38;;;;;;;;;;;1.20;99.90;;;;;;4956729;28;19949;-68
2023/01/22 14:25:05;;;;;;;;;;;1.20;99.90;;;;;;4959423;28;20030;-68
2023/01/22 14:27:40;;;;;;;;;;;1.30;99.90;;;;;;4964650;28;19945;-68
2023/01/22 14:30:07;;;;;;;;;;;1.20;99.90;;;;;;4954582;28;19930;-68
2023/01/22 14:32:34;;;;;;;;;;;1.20;99.90;;;;;;4960264;28;19970;-69
2023/01/22 14:35:01;;;;;;;;;;;1.20;99.90;;;;;;4963169;28;19926;-68
2023/01/22 14:37:28;;;;;;;;;;;1.20;99.90;;;;;;4962194;28;20370;-74
2023/01/22 14:39:57;;;;;;;;;;;1.30;99.90;;;;;;4965475;28;19926;-74
2023/01/22 14:42:25;;;;;;;;;;;1.30;99.90;;;;;;4963598;28;20349;-67
2023/01/22 14:44:52;;;;;;;;;;;1.20;99.90;;;;;;4959278;28;19930;-70
2023/01/22 14:47:18;;;;;;;;;;;1.20;99.90;;;;;;4957958;28;19926;-71
2023/01/22 14:49:45;;;;;;;;;;;1.20;99.90;;;;;;4959757;28;19938;-72
2023/01/22 14:52:12;;;;;;;;;;;1.20;99.90;;;;;;4959515;28;19930;-67
2023/01/22 14:54:39;;;;;;;;;;;1.20;99.90;;;;;;4952990;29;19930;-69
2023/01/22 14:57:07;;;;;;;;;;;1.20;99.90;;;;;;4948019;28;19930;-71
2023/01/22 14:59:34;;;;;;;;;;;1.20;99.90;;;;;;4941862;28;19933;-70
2023/01/22 15:02:00;;;;;;;;;;;1.20;99.90;;;;;;4948169;28;19926;-70
2023/01/22 15:04:27;;;;;;;;;;;1.20;99.90;;;;;;4956410;28;19926;-68
2023/01/22 15:06:54;;;;;;;;;;;1.20;99.90;;;;;;4952317;28;19931;-68
2023/01/22 15:09:21;;;;;;;;;;;1.20;99.90;;;;;;4949400;28;19926;-68
2023/01/22 15:11:48;;;;;;;;;;;1.10;99.90;;;;;;4950602;28;19980;-69
2023/01/22 15:14:16;;;;;;;;;;;1.20;99.90;;;;;;4944796;28;20357;-69
2023/01/22 15:16:43;;;;;;;;;;;1.10;99.90;;;;;;4951783;28;19927;-70
2023/01/22 15:19:10;;;;;;;;;;;1.20;99.90;;;;;;4947099;28;19930;-68
2023/01/22 15:21:37;;;;;;;;;;;1.20;99.90;;;;;;4947598;28;19930;-65
2023/01/22 15:24:04;;;;;;;;;;;1.10;99.90;;;;;;4954668;28;20036;-70
2023/01/22 15:26:33;;;;;;;;;;;1.20;99.90;;;;;;4953169;28;19926;-64
2023/01/22 15:29:03;;;;;;;;;;;1.20;99.90;;;;;;4956314;28;20629;-65
2023/01/22 15:31:32;;;;;;;;;;;1.20;99.90;;;;;;4952192;28;19933;-66
2023/01/22 15:34:00;;;;;;;;;;;1.10;99.90;;;;;;4958282;28;19931;-66
2023/01/22 15:36:27;;;;;;;;;;;1.10;99.90;;;;;;4962187;28;19984;-63
2023/01/22 15:38:55;;;;;;;;;;;1.10;99.90;;;;;;4958270;28;19934;-69
2023/01/22 15:41:22;;;;;;;;;;;1.10;99.90;;;;;;4956996;28;20445;-65
2023/01/22 15:43:50;;;;;;;;;;;1.10;99.90;;;;;;4954467;28;19938;-68
2023/01/22 15:46:17;;;;;;;;;;;1.10;99.90;;;;;;4956951;28;20353;-63
2023/01/22 15:48:46;;;;;;;;;;;1.10;99.90;;;;;;4955233;28;19927;-64
2023/01/22 15:51:14;;;;;;;;;;;1.10;99.90;;;;;;4960736;28;19962;-64
2023/01/22 15:53:41;;;;;;;;;;;1.10;99.90;;;;;;4955940;28;19933;-67
2023/01/22 15:56:08;;;;;;;;;;;1.10;99.90;;;;;;4965356;28;19934;-68
2023/01/22 15:58:35;;;;;;;;;;;1.10;99.90;;;;;;4953748;28;19926;-66
2023/01/22 16:01:01;;;;;;;;;;;1.10;99.90;;;;;;4944466;28;20344;-67
2023/01/22 16:03:28;;;;;;;;;;;1.10;99.90;;;;;;4962179;28;19926;-64
2023/01/22 16:06:06;;;;;;;;;;;1.10;99.90;;;;;;4952113;28;19927;-67
2023/01/22 16:08:33;;;;;;;;;;;1.00;99.90;;;;;;4952221;28;19942;-67
2023/01/22 16:11:00;;;;;;;;;;;1.10;99.90;;;;;;4948439;28;19927;-68
2023/01/22 16:13:26;;;;;;;;;;;1.10;99.90;;;;;;4953208;28;19934;-68
2023/01/22 16:15:57;;;;;;;;;;;1.10;99.90;;;;;;4949667;28;19931;-66
2023/01/22 16:18:24;;;;;;;;;;;1.10;99.90;;;;;;4948358;28;20401;-67
2023/01/22 16:20:50;;;;;;;;;;;1.10;99.90;;;;;;4953003;28;19926;-67
2023/01/22 16:23:19;;;;;;;;;;;1.10;99.90;;;;;;4955610;28;19926;-67
2023/01/22 16:25:45;;;;;;;;;;;1.10;99.90;;;;;;4958442;28;19934;-67
2023/01/22 16:28:12;;;;;;;;;;;1.10;99.90;;;;;;4957271;28;19930;-67
2023/01/22 16:30:41;;;;;;;;;;;1.10;99.90;;;;;;4955183;28;19931;-67
2023/01/22 16:33:16;;;;;;;;;;;1.10;99.90;;;;;;4954932;28;19930;-66
2023/01/22 16:35:43;;;;;;;;;;;1.00;99.90;;;;;;4961533;28;19993;-67
2023/01/22 16:38:10;;;;;;;;;;;1.10;99.90;;;;;;4955699;28;19926;-67
2023/01/22 16:40:38;;;;;;;;;;;1.10;99.90;;;;;;4953952;28;20302;-68
2023/01/22 16:43:06;;;;;;;;;;;1.10;99.90;;;;;;4956320;28;19926;-67
2023/01/22 16:45:33;;;;;;;;;;;1.10;99.90;;;;;;4956941;28;19966;-68
2023/01/22 16:48:00;;;;;;;;;;;1.10;99.90;;;;;;4952508;28;19927;-67
2023/01/22 16:50:27;;;;;;;;;;;1.10;99.90;;;;;;4950746;28;19933;-67
2023/01/22 16:52:54;;;;;;;;;;;1.10;99.90;;;;;;4952872;28;19930;-68
2023/01/22 16:55:20;;;;;;;;;;;1.10;99.90;;;;;;4960522;28;19933;-68
2023/01/22 16:57:49;;;;;;;;;;;1.10;99.90;;;;;;4955961;28;19934;-67
2023/01/22 17:00:16;;;;;;;;;;;1.10;99.90;;;;;;4949039;28;19926;-66
2023/01/22 17:02:42;;;;;;;;;;;1.10;99.90;;;;;;4953565;28;20464;-67
2023/01/22 17:05:11;;;;;;;;;;;1.10;99.90;;;;;;4949966;28;19931;-66
2023/01/22 17:07:38;;;;;;;;;;;1.00;99.90;;;;;;4954405;28;20013;-66
2023/01/22 17:10:05;;;;;;;;;;;1.00;99.90;;;;;;4951658;28;19926;-68
2023/01/22 17:12:32;;;;;;;;;;;1.10;99.90;;;;;;4953177;28;19931;-67
2023/01/22 17:15:00;;;;;;;;;;;1.10;99.90;;;;;;4953116;28;20393;-68
2023/01/22 17:17:27;;;;;;;;;;;1.10;99.90;;;;;;4948320;28;19927;-67
2023/01/22 17:19:54;;;;;;;;;;;1.10;99.90;;;;;;4956626;28;20393;-68
2023/01/22 17:22:21;;;;;;;;;;;1.10;99.90;;;;;;4952337;28;19948;-68
2023/01/22 17:24:48;;;;;;;;;;;1.10;99.90;;;;;;4953021;28;19935;-68
2023/01/22 17:27:17;;;;;;;;;;;1.10;99.90;;;;;;4953959;28;19938;-76
2023/01/22 17:29:44;;;;;;;;;;;1.00;99.90;;;;;;4952474;28;20033;-68
2023/01/22 17:32:12;;;;;;;;;;;1.10;99.90;;;;;;4953064;28;19927;-67
2023/01/22 17:34:40;;;;;;;;;;;1.10;99.90;;;;;;4959965;28;19954;-71
2023/01/22 17:37:10;;;;;;;;;;;1.00;99.90;;;;;;4954907;28;20018;-73
2023/01/22 17:39:37;;;;;;;;;;;1.10;99.90;;;;;;4951526;28;19927;-70
2023/01/22 17:42:04;;;;;;;;;;;1.00;99.90;;;;;;4947471;28;19994;-70
2023/01/22 17:44:33;;;;;;;;;;;1.10;99.90;;;;;;4953680;28;20341;-68
2023/01/22 17:47:01;;;;;;;;;;;1.00;99.90;;;;;;4956668;28;20073;-69
2023/01/22 17:49:31;;;;;;;;;;;1.00;99.90;;;;;;4948373;28;19927;-67
2023/01/22 17:51:58;;;;;;;;;;;1.00;99.90;;;;;;4953061;28;19926;-67
2023/01/22 17:54:24;;;;;;;;;;;1.00;99.90;;;;;;4952179;28;19926;-67
2023/01/22 17:56:52;;;;;;;;;;;1.10;99.90;;;;;;4948420;28;20394;-68
2023/01/22 17:59:19;;;;;;;;;;;1.00;99.90;;;;;;4961931;28;19950;-67
2023/01/22 18:01:46;;;;;;;;;;;1.10;99.90;;;;;;4962427;28;19930;-67
2023/01/22 18:04:13;;;;;;;;;;;1.10;99.90;;;;;;4959405;28;19926;-67
2023/01/22 18:06:42;;;;;;;;;;;1.10;99.90;;;;;;4958001;28;19926;-66
2023/01/22 18:09:09;;;;;;;;;;;1.10;99.90;;;;;;4959911;28;19937;-68
2023/01/22 18:11:36;;;;;;;;;;;1.00;99.90;;;;;;4961519;28;19981;-68
2023/01/22 18:14:05;;;;;;;;;;;1.00;99.90;;;;;;4960487;28;19930;-67
2023/01/22 18:16:33;;;;;;;;;;;1.00;99.90;;;;;;4963898;28;19930;-68
2023/01/22 18:19:02;;;;;;;;;;;1.00;99.90;;;;;;4961451;28;19930;-67
2023/01/22 18:21:29;;;;;;;;;;;1.00;99.90;;;;;;4958463;28;19930;-69
2023/01/22 18:23:59;;;;;;;;;;;1.00;99.90;;;;;;4954610;28;20317;-67
2023/01/22 18:26:25;;;;;;;;;;;1.00;99.90;;;;;;4951320;28;19930;-67
2023/01/22 18:28:54;;;;;;;;;;;1.00;99.90;;;;;;4959854;28;20389;-67
2023/01/22 18:31:21;;;;;;;;;;;1.00;99.90;;;;;;4962579;28;19926;-66
2023/01/22 18:33:48;;;;;;;;;;;1.00;99.90;;;;;;4958239;28;20025;-67
2023/01/22 18:36:16;;;;;;;;;;;1.00;99.90;;;;;;4959081;28;19934;-68
2023/01/22 18:38:43;;;;;;;;;;;1.00;99.90;;;;;;4958437;28;20022;-67
2023/01/22 18:41:12;;;;;;;;;;;1.10;99.90;;;;;;4957659;28;19926;-68